sensor_id;sensor_type;location;lat;lon;timestamp;P1;durP1;ratioP1;P2;durP2;ratioP2
5393;SDS011;2720;52.396;10.064;2022-10-22T00:02:16;22.40;;;12.60;;
5393;SDS011;2720;52.396;10.064;2022-10-22T00:04:45;18.40;;;11.80;;
5393;SDS011;2720;52.396;10.064;2022-10-22T00:07:12;20.50;;;12.30;;
5393;SDS011;2720;52.396;10.064;2022-10-22T00:09:40;26.93;;;12.73;;
5393;SDS011;2720;52.396;10.064;2022-10-22T00:12:07;17.20;;;11.90;;
5393;SDS011;2720;52.396;10.064;2022-10-22T00:14:34;17.50;;;11.43;;
5393;SDS011;2720;52.396;10.064;2022-10-22T00:17:02;22.43;;;12.00;;
5393;SDS011;2720;52.396;10.064;2022-10-22T00:19:29;20.67;;;12.67;;
5393;SDS011;2720;52.396;10.064;2022-10-22T00:21:56;21.40;;;12.37;;
5393;SDS011;2720;52.396;10.064;2022-10-22T00:24:23;18.43;;;11.97;;
5393;SDS011;2720;52.396;10.064;2022-10-22T00:26:52;21.53;;;11.00;;
5393;SDS011;2720;52.396;10.064;2022-10-22T00:29:19;23.07;;;11.53;;
5393;SDS011;2720;52.396;10.064;2022-10-22T00:31:46;24.47;;;12.47;;
5393;SDS011;2720;52.396;10.064;2022-10-22T00:34:15;21.43;;;12.37;;
5393;SDS011;2720;52.396;10.064;2022-10-22T00:36:42;17.67;;;11.67;;
5393;SDS011;2720;52.396;10.064;2022-10-22T00:39:09;22.70;;;12.53;;
5393;SDS011;2720;52.396;10.064;2022-10-22T00:41:37;22.53;;;12.40;;
5393;SDS011;2720;52.396;10.064;2022-10-22T00:44:05;19.50;;;12.60;;
5393;SDS011;2720;52.396;10.064;2022-10-22T00:46:33;27.53;;;12.60;;
5393;SDS011;2720;52.396;10.064;2022-10-22T00:49:00;28.23;;;14.57;;
5393;SDS011;2720;52.396;10.064;2022-10-22T00:51:30;21.40;;;13.37;;
5393;SDS011;2720;52.396;10.064;2022-10-22T00:54:00;24.30;;;12.80;;
5393;SDS011;2720;52.396;10.064;2022-10-22T00:56:29;19.33;;;12.73;;
5393;SDS011;2720;52.396;10.064;2022-10-22T00:58:58;22.83;;;12.57;;
5393;SDS011;2720;52.396;10.064;2022-10-22T01:01:29;25.17;;;12.60;;
5393;SDS011;2720;52.396;10.064;2022-10-22T01:03:57;22.50;;;13.43;;
5393;SDS011;2720;52.396;10.064;2022-10-22T01:06:25;29.50;;;12.93;;
5393;SDS011;2720;52.396;10.064;2022-10-22T01:09:01;21.00;;;11.57;;
5393;SDS011;2720;52.396;10.064;2022-10-22T01:11:34;24.63;;;12.50;;
5393;SDS011;2720;52.396;10.064;2022-10-22T01:14:16;18.27;;;10.83;;
5393;SDS011;2720;52.396;10.064;2022-10-22T01:16:54;23.10;;;13.17;;
5393;SDS011;2720;52.396;10.064;2022-10-22T01:19:40;23.20;;;13.57;;
5393;SDS011;2720;52.396;10.064;2022-10-22T01:22:17;28.00;;;13.90;;
5393;SDS011;2720;52.396;10.064;2022-10-22T01:24:52;26.80;;;12.40;;
5393;SDS011;2720;52.396;10.064;2022-10-22T01:27:25;21.97;;;13.67;;
5393;SDS011;2720;52.396;10.064;2022-10-22T01:30:00;29.97;;;13.87;;
5393;SDS011;2720;52.396;10.064;2022-10-22T01:32:30;26.83;;;13.47;;
5393;SDS011;2720;52.396;10.064;2022-10-22T01:35:01;22.27;;;12.60;;
5393;SDS011;2720;52.396;10.064;2022-10-22T01:37:33;19.97;;;13.00;;
5393;SDS011;2720;52.396;10.064;2022-10-22T01:40:04;22.63;;;12.73;;
5393;SDS011;2720;52.396;10.064;2022-10-22T01:42:34;22.80;;;12.80;;
5393;SDS011;2720;52.396;10.064;2022-10-22T01:45:04;27.23;;;13.10;;
5393;SDS011;2720;52.396;10.064;2022-10-22T01:47:38;21.30;;;12.10;;
5393;SDS011;2720;52.396;10.064;2022-10-22T01:53:17;21.53;;;13.07;;
5393;SDS011;2720;52.396;10.064;2022-10-22T01:56:03;24.20;;;12.37;;
5393;SDS011;2720;52.396;10.064;2022-10-22T01:58:40;31.47;;;13.90;;
5393;SDS011;2720;52.396;10.064;2022-10-22T02:01:14;24.00;;;14.50;;
5393;SDS011;2720;52.396;10.064;2022-10-22T02:03:49;20.27;;;12.83;;
5393;SDS011;2720;52.396;10.064;2022-10-22T02:06:21;27.27;;;13.77;;
5393;SDS011;2720;52.396;10.064;2022-10-22T02:08:51;32.03;;;15.20;;
5393;SDS011;2720;52.396;10.064;2022-10-22T02:11:19;22.80;;;13.40;;
5393;SDS011;2720;52.396;10.064;2022-10-22T02:13:47;21.20;;;12.23;;
5393;SDS011;2720;52.396;10.064;2022-10-22T02:16:20;19.10;;;12.57;;
5393;SDS011;2720;52.396;10.064;2022-10-22T02:18:51;24.93;;;12.40;;
5393;SDS011;2720;52.396;10.064;2022-10-22T02:21:20;22.43;;;13.60;;
5393;SDS011;2720;52.396;10.064;2022-10-22T02:23:47;27.27;;;13.87;;
5393;SDS011;2720;52.396;10.064;2022-10-22T02:26:15;24.47;;;12.90;;
5393;SDS011;2720;52.396;10.064;2022-10-22T02:28:49;17.53;;;11.80;;
5393;SDS011;2720;52.396;10.064;2022-10-22T02:31:25;19.33;;;12.07;;
5393;SDS011;2720;52.396;10.064;2022-10-22T02:33:55;19.17;;;10.50;;
5393;SDS011;2720;52.396;10.064;2022-10-22T02:36:26;22.53;;;11.87;;
5393;SDS011;2720;52.396;10.064;2022-10-22T02:38:53;20.27;;;12.83;;
5393;SDS011;2720;52.396;10.064;2022-10-22T02:41:21;20.97;;;12.17;;
5393;SDS011;2720;52.396;10.064;2022-10-22T02:43:49;23.90;;;13.30;;
5393;SDS011;2720;52.396;10.064;2022-10-22T02:46:19;21.90;;;14.20;;
5393;SDS011;2720;52.396;10.064;2022-10-22T02:48:48;20.80;;;12.80;;
5393;SDS011;2720;52.396;10.064;2022-10-22T02:51:15;22.50;;;11.67;;
5393;SDS011;2720;52.396;10.064;2022-10-22T02:53:42;23.43;;;12.93;;
5393;SDS011;2720;52.396;10.064;2022-10-22T02:56:09;21.47;;;12.10;;
5393;SDS011;2720;52.396;10.064;2022-10-22T02:58:36;21.73;;;12.23;;
5393;SDS011;2720;52.396;10.064;2022-10-22T03:01:03;17.70;;;11.50;;
5393;SDS011;2720;52.396;10.064;2022-10-22T03:03:30;20.17;;;12.83;;
5393;SDS011;2720;52.396;10.064;2022-10-22T03:05:59;24.47;;;12.03;;
5393;SDS011;2720;52.396;10.064;2022-10-22T03:08:26;24.70;;;12.70;;
5393;SDS011;2720;52.396;10.064;2022-10-22T03:10:53;20.80;;;11.57;;
5393;SDS011;2720;52.396;10.064;2022-10-22T03:13:20;20.10;;;12.00;;
5393;SDS011;2720;52.396;10.064;2022-10-22T03:15:47;19.50;;;11.97;;
5393;SDS011;2720;52.396;10.064;2022-10-22T03:18:14;30.53;;;12.50;;
5393;SDS011;2720;52.396;10.064;2022-10-22T03:20:41;35.33;;;12.97;;
5393;SDS011;2720;52.396;10.064;2022-10-22T03:23:10;21.53;;;11.30;;
5393;SDS011;2720;52.396;10.064;2022-10-22T03:25:39;21.40;;;11.90;;
5393;SDS011;2720;52.396;10.064;2022-10-22T03:28:09;34.63;;;12.20;;
5393;SDS011;2720;52.396;10.064;2022-10-22T03:30:38;17.60;;;10.87;;
5393;SDS011;2720;52.396;10.064;2022-10-22T03:33:05;21.40;;;12.07;;
5393;SDS011;2720;52.396;10.064;2022-10-22T03:35:32;19.87;;;10.80;;
5393;SDS011;2720;52.396;10.064;2022-10-22T03:38:04;18.60;;;11.63;;
5393;SDS011;2720;52.396;10.064;2022-10-22T03:40:32;22.60;;;12.77;;
5393;SDS011;2720;52.396;10.064;2022-10-22T03:43:00;17.70;;;11.83;;
5393;SDS011;2720;52.396;10.064;2022-10-22T03:45:27;19.30;;;11.77;;
5393;SDS011;2720;52.396;10.064;2022-10-22T03:47:54;19.57;;;12.33;;
5393;SDS011;2720;52.396;10.064;2022-10-22T03:50:21;18.77;;;12.87;;
5393;SDS011;2720;52.396;10.064;2022-10-22T03:52:48;23.63;;;12.93;;
5393;SDS011;2720;52.396;10.064;2022-10-22T03:55:15;21.10;;;12.33;;
5393;SDS011;2720;52.396;10.064;2022-10-22T03:57:43;15.10;;;10.87;;
5393;SDS011;2720;52.396;10.064;2022-10-22T04:00:10;20.00;;;11.43;;
5393;SDS011;2720;52.396;10.064;2022-10-22T04:02:37;15.17;;;10.73;;
5393;SDS011;2720;52.396;10.064;2022-10-22T04:05:04;19.17;;;12.27;;
5393;SDS011;2720;52.396;10.064;2022-10-22T04:07:32;18.50;;;12.20;;
5393;SDS011;2720;52.396;10.064;2022-10-22T04:09:59;19.50;;;12.60;;
5393;SDS011;2720;52.396;10.064;2022-10-22T04:12:26;23.40;;;12.17;;
5393;SDS011;2720;52.396;10.064;2022-10-22T04:14:54;33.47;;;14.77;;
5393;SDS011;2720;52.396;10.064;2022-10-22T04:17:21;18.83;;;12.83;;
5393;SDS011;2720;52.396;10.064;2022-10-22T04:19:48;19.30;;;13.20;;
5393;SDS011;2720;52.396;10.064;2022-10-22T04:22:15;20.03;;;13.00;;
5393;SDS011;2720;52.396;10.064;2022-10-22T04:24:42;21.63;;;12.80;;
5393;SDS011;2720;52.396;10.064;2022-10-22T04:27:09;36.10;;;12.87;;
5393;SDS011;2720;52.396;10.064;2022-10-22T04:29:36;25.30;;;13.13;;
5393;SDS011;2720;52.396;10.064;2022-10-22T04:32:04;20.23;;;13.30;;
5393;SDS011;2720;52.396;10.064;2022-10-22T04:34:31;19.13;;;12.43;;
5393;SDS011;2720;52.396;10.064;2022-10-22T04:36:58;25.13;;;12.80;;
5393;SDS011;2720;52.396;10.064;2022-10-22T04:39:25;24.13;;;12.57;;
5393;SDS011;2720;52.396;10.064;2022-10-22T04:41:52;28.70;;;13.80;;
5393;SDS011;2720;52.396;10.064;2022-10-22T04:44:19;24.50;;;13.50;;
5393;SDS011;2720;52.396;10.064;2022-10-22T04:46:46;18.30;;;12.07;;
5393;SDS011;2720;52.396;10.064;2022-10-22T04:49:14;25.13;;;12.97;;
5393;SDS011;2720;52.396;10.064;2022-10-22T04:51:42;22.80;;;13.27;;
5393;SDS011;2720;52.396;10.064;2022-10-22T04:54:09;22.20;;;12.83;;
5393;SDS011;2720;52.396;10.064;2022-10-22T04:56:36;29.37;;;13.07;;
5393;SDS011;2720;52.396;10.064;2022-10-22T04:59:04;24.53;;;14.17;;
5393;SDS011;2720;52.396;10.064;2022-10-22T05:01:33;27.80;;;11.53;;
5393;SDS011;2720;52.396;10.064;2022-10-22T05:04:02;17.73;;;12.20;;
5393;SDS011;2720;52.396;10.064;2022-10-22T05:06:32;19.40;;;11.50;;
5393;SDS011;2720;52.396;10.064;2022-10-22T05:09:01;22.27;;;11.80;;
5393;SDS011;2720;52.396;10.064;2022-10-22T05:11:29;19.40;;;12.10;;
5393;SDS011;2720;52.396;10.064;2022-10-22T05:13:59;17.67;;;11.67;;
5393;SDS011;2720;52.396;10.064;2022-10-22T05:16:27;17.27;;;10.70;;
5393;SDS011;2720;52.396;10.064;2022-10-22T05:18:56;22.80;;;12.20;;
5393;SDS011;2720;52.396;10.064;2022-10-22T05:21:24;25.30;;;11.73;;
5393;SDS011;2720;52.396;10.064;2022-10-22T05:23:53;15.30;;;10.43;;
5393;SDS011;2720;52.396;10.064;2022-10-22T05:26:21;17.40;;;10.30;;
5393;SDS011;2720;52.396;10.064;2022-10-22T05:28:49;20.90;;;11.53;;
5393;SDS011;2720;52.396;10.064;2022-10-22T05:31:16;19.73;;;11.40;;
5393;SDS011;2720;52.396;10.064;2022-10-22T05:33:44;17.33;;;9.90;;
5393;SDS011;2720;52.396;10.064;2022-10-22T05:36:12;15.30;;;10.17;;
5393;SDS011;2720;52.396;10.064;2022-10-22T05:38:41;20.63;;;10.83;;
5393;SDS011;2720;52.396;10.064;2022-10-22T05:41:10;25.53;;;9.90;;
5393;SDS011;2720;52.396;10.064;2022-10-22T05:43:38;20.73;;;10.63;;
5393;SDS011;2720;52.396;10.064;2022-10-22T05:46:06;18.27;;;9.17;;
5393;SDS011;2720;52.396;10.064;2022-10-22T05:48:34;11.27;;;8.47;;
5393;SDS011;2720;52.396;10.064;2022-10-22T05:51:02;16.87;;;10.50;;
5393;SDS011;2720;52.396;10.064;2022-10-22T05:53:30;19.87;;;10.57;;
5393;SDS011;2720;52.396;10.064;2022-10-22T05:55:58;17.60;;;9.83;;
5393;SDS011;2720;52.396;10.064;2022-10-22T05:58:28;15.17;;;8.70;;
5393;SDS011;2720;52.396;10.064;2022-10-22T06:00:59;17.80;;;10.17;;
5393;SDS011;2720;52.396;10.064;2022-10-22T06:03:27;17.27;;;9.10;;
5393;SDS011;2720;52.396;10.064;2022-10-22T06:05:55;14.17;;;9.67;;
5393;SDS011;2720;52.396;10.064;2022-10-22T06:08:23;17.30;;;9.63;;
5393;SDS011;2720;52.396;10.064;2022-10-22T06:10:50;16.90;;;10.43;;
5393;SDS011;2720;52.396;10.064;2022-10-22T06:13:17;16.73;;;10.87;;
5393;SDS011;2720;52.396;10.064;2022-10-22T06:15:45;14.60;;;10.40;;
5393;SDS011;2720;52.396;10.064;2022-10-22T06:18:12;22.10;;;11.57;;
5393;SDS011;2720;52.396;10.064;2022-10-22T06:20:39;20.67;;;11.00;;
5393;SDS011;2720;52.396;10.064;2022-10-22T06:23:07;20.77;;;11.70;;
5393;SDS011;2720;52.396;10.064;2022-10-22T06:25:34;17.50;;;10.87;;
5393;SDS011;2720;52.396;10.064;2022-10-22T06:28:01;21.37;;;11.07;;
5393;SDS011;2720;52.396;10.064;2022-10-22T06:30:28;23.40;;;11.37;;
5393;SDS011;2720;52.396;10.064;2022-10-22T06:32:57;24.63;;;11.97;;
5393;SDS011;2720;52.396;10.064;2022-10-22T06:35:24;18.57;;;12.10;;
5393;SDS011;2720;52.396;10.064;2022-10-22T06:37:50;22.97;;;12.37;;
5393;SDS011;2720;52.396;10.064;2022-10-22T06:40:17;23.90;;;12.67;;
5393;SDS011;2720;52.396;10.064;2022-10-22T06:42:45;23.93;;;11.53;;
5393;SDS011;2720;52.396;10.064;2022-10-22T06:45:12;18.17;;;12.10;;
5393;SDS011;2720;52.396;10.064;2022-10-22T06:47:39;19.27;;;12.57;;
5393;SDS011;2720;52.396;10.064;2022-10-22T06:50:08;21.83;;;12.00;;
5393;SDS011;2720;52.396;10.064;2022-10-22T06:52:35;22.10;;;12.50;;
5393;SDS011;2720;52.396;10.064;2022-10-22T06:55:02;26.17;;;13.50;;
5393;SDS011;2720;52.396;10.064;2022-10-22T06:57:29;25.87;;;13.67;;
5393;SDS011;2720;52.396;10.064;2022-10-22T06:59:56;23.10;;;12.60;;
5393;SDS011;2720;52.396;10.064;2022-10-22T07:02:23;27.03;;;14.00;;
5393;SDS011;2720;52.396;10.064;2022-10-22T07:04:50;20.80;;;12.63;;
5393;SDS011;2720;52.396;10.064;2022-10-22T07:07:18;27.57;;;14.13;;
5393;SDS011;2720;52.396;10.064;2022-10-22T07:09:45;64.15;;;45.95;;
5393;SDS011;2720;52.396;10.064;2022-10-22T07:12:54;23.40;;;13.73;;
5393;SDS011;2720;52.396;10.064;2022-10-22T07:15:21;24.83;;;15.40;;
5393;SDS011;2720;52.396;10.064;2022-10-22T07:17:48;30.13;;;13.00;;
5393;SDS011;2720;52.396;10.064;2022-10-22T07:20:15;28.20;;;12.17;;
5393;SDS011;2720;52.396;10.064;2022-10-22T07:22:43;23.37;;;12.73;;
5393;SDS011;2720;52.396;10.064;2022-10-22T07:25:09;23.17;;;12.77;;
5393;SDS011;2720;52.396;10.064;2022-10-22T07:27:36;26.20;;;12.77;;
5393;SDS011;2720;52.396;10.064;2022-10-22T07:30:06;24.03;;;13.07;;
5393;SDS011;2720;52.396;10.064;2022-10-22T07:32:34;23.43;;;12.83;;
5393;SDS011;2720;52.396;10.064;2022-10-22T07:35:01;26.23;;;12.70;;
5393;SDS011;2720;52.396;10.064;2022-10-22T07:37:28;29.80;;;13.07;;
5393;SDS011;2720;52.396;10.064;2022-10-22T07:39:55;20.70;;;13.27;;
5393;SDS011;2720;52.396;10.064;2022-10-22T07:42:22;22.67;;;13.17;;
5393;SDS011;2720;52.396;10.064;2022-10-22T07:44:49;23.40;;;13.87;;
5393;SDS011;2720;52.396;10.064;2022-10-22T07:47:17;25.87;;;15.00;;
5393;SDS011;2720;52.396;10.064;2022-10-22T07:49:44;32.07;;;13.93;;
5393;SDS011;2720;52.396;10.064;2022-10-22T07:52:11;24.93;;;13.83;;
5393;SDS011;2720;52.396;10.064;2022-10-22T07:54:38;24.60;;;13.67;;
5393;SDS011;2720;52.396;10.064;2022-10-22T07:57:05;29.67;;;15.27;;
5393;SDS011;2720;52.396;10.064;2022-10-22T07:59:32;31.23;;;14.93;;
5393;SDS011;2720;52.396;10.064;2022-10-22T08:01:59;22.50;;;13.60;;
5393;SDS011;2720;52.396;10.064;2022-10-22T08:04:27;33.50;;;14.50;;
5393;SDS011;2720;52.396;10.064;2022-10-22T08:06:54;25.40;;;14.87;;
5393;SDS011;2720;52.396;10.064;2022-10-22T08:09:21;27.37;;;14.70;;
5393;SDS011;2720;52.396;10.064;2022-10-22T08:11:49;31.03;;;15.17;;
5393;SDS011;2720;52.396;10.064;2022-10-22T08:14:16;25.80;;;14.70;;
5393;SDS011;2720;52.396;10.064;2022-10-22T08:16:42;23.97;;;14.10;;
5393;SDS011;2720;52.396;10.064;2022-10-22T08:19:10;24.83;;;13.60;;
5393;SDS011;2720;52.396;10.064;2022-10-22T08:21:44;22.80;;;12.43;;
5393;SDS011;2720;52.396;10.064;2022-10-22T08:24:11;29.70;;;13.50;;
5393;SDS011;2720;52.396;10.064;2022-10-22T08:26:39;27.87;;;14.60;;
5393;SDS011;2720;52.396;10.064;2022-10-22T08:29:06;25.63;;;15.00;;
5393;SDS011;2720;52.396;10.064;2022-10-22T08:31:33;25.40;;;14.60;;
5393;SDS011;2720;52.396;10.064;2022-10-22T08:34:00;29.20;;;14.73;;
5393;SDS011;2720;52.396;10.064;2022-10-22T08:36:29;25.83;;;16.00;;
5393;SDS011;2720;52.396;10.064;2022-10-22T08:38:58;24.80;;;14.67;;
5393;SDS011;2720;52.396;10.064;2022-10-22T08:41:25;23.07;;;14.43;;
5393;SDS011;2720;52.396;10.064;2022-10-22T08:44:11;25.73;;;13.87;;
5393;SDS011;2720;52.396;10.064;2022-10-22T08:46:58;24.47;;;13.57;;
5393;SDS011;2720;52.396;10.064;2022-10-22T08:49:39;27.13;;;12.90;;
5393;SDS011;2720;52.396;10.064;2022-10-22T08:52:08;18.83;;;12.10;;
5393;SDS011;2720;52.396;10.064;2022-10-22T08:54:42;23.73;;;12.10;;
5393;SDS011;2720;52.396;10.064;2022-10-22T08:57:22;19.73;;;9.93;;
5393;SDS011;2720;52.396;10.064;2022-10-22T09:00:04;16.30;;;10.47;;
5393;SDS011;2720;52.396;10.064;2022-10-22T09:02:37;22.53;;;10.57;;
5393;SDS011;2720;52.396;10.064;2022-10-22T09:05:16;12.93;;;9.37;;
5393;SDS011;2720;52.396;10.064;2022-10-22T09:07:53;15.80;;;10.07;;
5393;SDS011;2720;52.396;10.064;2022-10-22T09:10:23;17.63;;;8.67;;
5393;SDS011;2720;52.396;10.064;2022-10-22T09:12:54;15.40;;;8.33;;
5393;SDS011;2720;52.396;10.064;2022-10-22T09:15:21;12.53;;;8.50;;
5393;SDS011;2720;52.396;10.064;2022-10-22T09:17:58;17.50;;;9.07;;
5393;SDS011;2720;52.396;10.064;2022-10-22T09:20:38;16.20;;;9.43;;
5393;SDS011;2720;52.396;10.064;2022-10-22T09:23:18;15.70;;;9.50;;
5393;SDS011;2720;52.396;10.064;2022-10-22T09:25:51;16.77;;;9.90;;
5393;SDS011;2720;52.396;10.064;2022-10-22T09:28:19;10.90;;;8.13;;
5393;SDS011;2720;52.396;10.064;2022-10-22T09:30:46;18.23;;;9.33;;
5393;SDS011;2720;52.396;10.064;2022-10-22T09:33:14;11.97;;;7.50;;
5393;SDS011;2720;52.396;10.064;2022-10-22T09:35:44;20.83;;;7.30;;
5393;SDS011;2720;52.396;10.064;2022-10-22T09:38:13;6.87;;;6.03;;
5393;SDS011;2720;52.396;10.064;2022-10-22T09:40:42;11.23;;;5.80;;
5393;SDS011;2720;52.396;10.064;2022-10-22T09:43:12;11.37;;;4.83;;
5393;SDS011;2720;52.396;10.064;2022-10-22T09:45:39;8.60;;;4.80;;
5393;SDS011;2720;52.396;10.064;2022-10-22T09:48:11;5.17;;;4.67;;
5393;SDS011;2720;52.396;10.064;2022-10-22T09:50:44;13.03;;;5.20;;
5393;SDS011;2720;52.396;10.064;2022-10-22T09:53:13;9.87;;;4.40;;
5393;SDS011;2720;52.396;10.064;2022-10-22T09:55:48;6.30;;;4.50;;
5393;SDS011;2720;52.396;10.064;2022-10-22T09:58:19;6.53;;;4.07;;
5393;SDS011;2720;52.396;10.064;2022-10-22T10:00:49;6.17;;;4.47;;
5393;SDS011;2720;52.396;10.064;2022-10-22T10:03:19;8.77;;;4.27;;
5393;SDS011;2720;52.396;10.064;2022-10-22T10:05:48;13.73;;;4.20;;
5393;SDS011;2720;52.396;10.064;2022-10-22T10:08:18;7.47;;;4.00;;
5393;SDS011;2720;52.396;10.064;2022-10-22T10:10:46;4.30;;;3.90;;
5393;SDS011;2720;52.396;10.064;2022-10-22T10:13:17;6.43;;;3.57;;
5393;SDS011;2720;52.396;10.064;2022-10-22T10:15:55;8.20;;;4.00;;
5393;SDS011;2720;52.396;10.064;2022-10-22T10:18:30;11.67;;;3.50;;
5393;SDS011;2720;52.396;10.064;2022-10-22T10:21:06;8.60;;;4.13;;
5393;SDS011;2720;52.396;10.064;2022-10-22T10:23:40;7.17;;;4.07;;
5393;SDS011;2720;52.396;10.064;2022-10-22T10:26:19;12.90;;;3.70;;
5393;SDS011;2720;52.396;10.064;2022-10-22T10:28:57;7.37;;;4.03;;
5393;SDS011;2720;52.396;10.064;2022-10-22T10:31:35;8.50;;;3.40;;
5393;SDS011;2720;52.396;10.064;2022-10-22T10:34:13;10.80;;;4.10;;
5393;SDS011;2720;52.396;10.064;2022-10-22T10:36:51;5.03;;;3.70;;
5393;SDS011;2720;52.396;10.064;2022-10-22T10:39:26;4.27;;;3.50;;
5393;SDS011;2720;52.396;10.064;2022-10-22T10:42:01;10.83;;;3.60;;
5393;SDS011;2720;52.396;10.064;2022-10-22T10:44:45;5.80;;;3.03;;
5393;SDS011;2720;52.396;10.064;2022-10-22T10:47:27;9.00;;;3.60;;
5393;SDS011;2720;52.396;10.064;2022-10-22T10:50:13;3.93;;;2.87;;
5393;SDS011;2720;52.396;10.064;2022-10-22T10:52:48;6.50;;;3.50;;
5393;SDS011;2720;52.396;10.064;2022-10-22T10:55:25;8.10;;;3.13;;
5393;SDS011;2720;52.396;10.064;2022-10-22T10:57:57;4.20;;;3.43;;
5393;SDS011;2720;52.396;10.064;2022-10-22T11:00:39;3.67;;;3.10;;
5393;SDS011;2720;52.396;10.064;2022-10-22T11:03:15;6.83;;;3.60;;
5393;SDS011;2720;52.396;10.064;2022-10-22T11:06:06;5.70;;;2.83;;
5393;SDS011;2720;52.396;10.064;2022-10-22T11:08:38;10.73;;;2.93;;
5393;SDS011;2720;52.396;10.064;2022-10-22T11:11:10;4.90;;;2.70;;
5393;SDS011;2720;52.396;10.064;2022-10-22T11:13:41;3.33;;;2.23;;
5393;SDS011;2720;52.396;10.064;2022-10-22T11:16:15;10.23;;;2.93;;
5393;SDS011;2720;52.396;10.064;2022-10-22T11:18:47;4.17;;;2.80;;
5393;SDS011;2720;52.396;10.064;2022-10-22T11:21:20;7.03;;;2.47;;
5393;SDS011;2720;52.396;10.064;2022-10-22T11:23:53;8.00;;;1.93;;
5393;SDS011;2720;52.396;10.064;2022-10-22T11:26:28;4.87;;;2.40;;
5393;SDS011;2720;52.396;10.064;2022-10-22T11:29:02;5.50;;;2.30;;
5393;SDS011;2720;52.396;10.064;2022-10-22T11:31:35;4.93;;;2.00;;
5393;SDS011;2720;52.396;10.064;2022-10-22T11:34:05;13.20;;;2.70;;
5393;SDS011;2720;52.396;10.064;2022-10-22T11:36:40;5.90;;;2.37;;
5393;SDS011;2720;52.396;10.064;2022-10-22T11:41:59;5.30;;;1.83;;
5393;SDS011;2720;52.396;10.064;2022-10-22T11:44:34;10.60;;;2.47;;
5393;SDS011;2720;52.396;10.064;2022-10-22T11:47:17;5.67;;;2.37;;
5393;SDS011;2720;52.396;10.064;2022-10-22T11:49:53;5.00;;;2.20;;
5393;SDS011;2720;52.396;10.064;2022-10-22T11:52:23;13.73;;;2.60;;
5393;SDS011;2720;52.396;10.064;2022-10-22T11:55:10;7.90;;;3.00;;
5393;SDS011;2720;52.396;10.064;2022-10-22T11:57:58;9.47;;;3.27;;
5393;SDS011;2720;52.396;10.064;2022-10-22T12:00:33;8.10;;;2.97;;
5393;SDS011;2720;52.396;10.064;2022-10-22T12:03:16;7.33;;;3.13;;
5393;SDS011;2720;52.396;10.064;2022-10-22T12:06:01;3.10;;;2.27;;
5393;SDS011;2720;52.396;10.064;2022-10-22T12:08:32;4.90;;;1.97;;
5393;SDS011;2720;52.396;10.064;2022-10-22T12:11:11;8.80;;;2.30;;
5393;SDS011;2720;52.396;10.064;2022-10-22T12:14:00;2.53;;;1.70;;
5393;SDS011;2720;52.396;10.064;2022-10-22T12:16:43;3.70;;;2.10;;
5393;SDS011;2720;52.396;10.064;2022-10-22T12:19:14;5.60;;;1.47;;
5393;SDS011;2720;52.396;10.064;2022-10-22T12:21:44;3.40;;;1.40;;
5393;SDS011;2720;52.396;10.064;2022-10-22T12:24:14;11.33;;;2.03;;
5393;SDS011;2720;52.396;10.064;2022-10-22T12:26:44;10.13;;;2.50;;
5393;SDS011;2720;52.396;10.064;2022-10-22T12:29:11;4.57;;;1.60;;
5393;SDS011;2720;52.396;10.064;2022-10-22T12:31:40;6.43;;;2.03;;
5393;SDS011;2720;52.396;10.064;2022-10-22T12:34:11;4.50;;;1.90;;
5393;SDS011;2720;52.396;10.064;2022-10-22T12:36:41;3.83;;;1.80;;
5393;SDS011;2720;52.396;10.064;2022-10-22T12:39:10;17.57;;;1.97;;
5393;SDS011;2720;52.396;10.064;2022-10-22T12:41:39;10.43;;;1.90;;
5393;SDS011;2720;52.396;10.064;2022-10-22T12:44:06;4.30;;;1.60;;
5393;SDS011;2720;52.396;10.064;2022-10-22T12:46:36;4.83;;;1.77;;
5393;SDS011;2720;52.396;10.064;2022-10-22T12:49:04;12.30;;;1.70;;
5393;SDS011;2720;52.396;10.064;2022-10-22T12:51:35;7.47;;;1.97;;
5393;SDS011;2720;52.396;10.064;2022-10-22T12:54:03;12.33;;;1.53;;
5393;SDS011;2720;52.396;10.064;2022-10-22T12:56:34;4.30;;;1.97;;
5393;SDS011;2720;52.396;10.064;2022-10-22T12:59:03;4.63;;;1.73;;
5393;SDS011;2720;52.396;10.064;2022-10-22T13:01:35;9.70;;;1.80;;
5393;SDS011;2720;52.396;10.064;2022-10-22T13:04:05;5.27;;;2.80;;
5393;SDS011;2720;52.396;10.064;2022-10-22T13:06:44;10.30;;;2.47;;
5393;SDS011;2720;52.396;10.064;2022-10-22T13:09:14;7.17;;;1.43;;
5393;SDS011;2720;52.396;10.064;2022-10-22T13:11:47;3.17;;;1.90;;
5393;SDS011;2720;52.396;10.064;2022-10-22T13:14:25;4.30;;;1.53;;
5393;SDS011;2720;52.396;10.064;2022-10-22T13:17:04;8.53;;;2.20;;
5393;SDS011;2720;52.396;10.064;2022-10-22T13:19:37;7.83;;;1.93;;
5393;SDS011;2720;52.396;10.064;2022-10-22T13:24:55;11.53;;;1.67;;
5393;SDS011;2720;52.396;10.064;2022-10-22T13:27:24;6.73;;;1.90;;
5393;SDS011;2720;52.396;10.064;2022-10-22T13:29:52;6.37;;;2.03;;
5393;SDS011;2720;52.396;10.064;2022-10-22T13:32:24;5.10;;;1.43;;
5393;SDS011;2720;52.396;10.064;2022-10-22T13:34:57;4.77;;;1.70;;
5393;SDS011;2720;52.396;10.064;2022-10-22T13:37:25;7.83;;;1.80;;
5393;SDS011;2720;52.396;10.064;2022-10-22T13:39:56;6.50;;;1.87;;
5393;SDS011;2720;52.396;10.064;2022-10-22T13:42:23;11.73;;;1.90;;
5393;SDS011;2720;52.396;10.064;2022-10-22T13:44:50;7.70;;;1.80;;
5393;SDS011;2720;52.396;10.064;2022-10-22T13:47:24;4.20;;;1.63;;
5393;SDS011;2720;52.396;10.064;2022-10-22T13:49:52;5.60;;;1.83;;
5393;SDS011;2720;52.396;10.064;2022-10-22T13:52:26;8.77;;;2.00;;
5393;SDS011;2720;52.396;10.064;2022-10-22T13:54:58;5.60;;;1.73;;
5393;SDS011;2720;52.396;10.064;2022-10-22T13:57:25;3.33;;;1.60;;
5393;SDS011;2720;52.396;10.064;2022-10-22T13:59:53;5.77;;;1.40;;
5393;SDS011;2720;52.396;10.064;2022-10-22T14:02:20;5.00;;;1.40;;
5393;SDS011;2720;52.396;10.064;2022-10-22T14:04:48;7.67;;;1.83;;
5393;SDS011;2720;52.396;10.064;2022-10-22T14:07:16;15.33;;;2.50;;
5393;SDS011;2720;52.396;10.064;2022-10-22T14:09:45;14.80;;;1.77;;
5393;SDS011;2720;52.396;10.064;2022-10-22T14:12:12;8.07;;;2.77;;
5393;SDS011;2720;52.396;10.064;2022-10-22T14:14:40;13.10;;;3.63;;
5393;SDS011;2720;52.396;10.064;2022-10-22T14:17:09;11.07;;;2.47;;
5393;SDS011;2720;52.396;10.064;2022-10-22T14:19:41;5.43;;;2.47;;
5393;SDS011;2720;52.396;10.064;2022-10-22T14:22:10;10.50;;;2.93;;
5393;SDS011;2720;52.396;10.064;2022-10-22T14:24:39;8.33;;;2.37;;
5393;SDS011;2720;52.396;10.064;2022-10-22T14:27:08;5.43;;;2.60;;
5393;SDS011;2720;52.396;10.064;2022-10-22T14:29:37;5.90;;;2.73;;
5393;SDS011;2720;52.396;10.064;2022-10-22T14:32:05;7.00;;;2.83;;
5393;SDS011;2720;52.396;10.064;2022-10-22T14:34:37;7.63;;;2.87;;
5393;SDS011;2720;52.396;10.064;2022-10-22T14:37:04;3.77;;;1.90;;
5393;SDS011;2720;52.396;10.064;2022-10-22T14:39:38;7.03;;;2.20;;
5393;SDS011;2720;52.396;10.064;2022-10-22T14:42:06;6.17;;;2.33;;
5393;SDS011;2720;52.396;10.064;2022-10-22T14:44:36;6.67;;;2.03;;
5393;SDS011;2720;52.396;10.064;2022-10-22T14:47:03;6.90;;;2.23;;
5393;SDS011;2720;52.396;10.064;2022-10-22T14:49:30;5.23;;;2.23;;
5393;SDS011;2720;52.396;10.064;2022-10-22T14:51:57;6.53;;;1.97;;
5393;SDS011;2720;52.396;10.064;2022-10-22T14:54:24;10.00;;;3.00;;
5393;SDS011;2720;52.396;10.064;2022-10-22T14:56:51;2.10;;;1.80;;
5393;SDS011;2720;52.396;10.064;2022-10-22T14:59:19;3.23;;;2.17;;
5393;SDS011;2720;52.396;10.064;2022-10-22T15:01:46;4.23;;;1.90;;
5393;SDS011;2720;52.396;10.064;2022-10-22T15:04:13;7.83;;;2.70;;
5393;SDS011;2720;52.396;10.064;2022-10-22T15:06:40;9.40;;;2.17;;
5393;SDS011;2720;52.396;10.064;2022-10-22T15:09:07;5.93;;;1.70;;
5393;SDS011;2720;52.396;10.064;2022-10-22T15:11:34;8.43;;;2.23;;